sensor_id;sensor_type;location;lat;lon;timestamp;pressure;altitude;pressure_sealevel;temperature;humidity
10476;BME280;26166;48.264;11.436;2023-05-25T00:02:09;96491.63;;;15.04;51.41
10476;BME280;26166;48.264;11.436;2023-05-25T00:05:14;96487.97;;;15.05;51.56
10476;BME280;26166;48.264;11.436;2023-05-25T00:08:14;96488.81;;;15.05;51.35
10476;BME280;26166;48.264;11.436;2023-05-25T00:11:14;96490.44;;;15.06;51.62
10476;BME280;26166;48.264;11.436;2023-05-25T00:14:18;96491.25;;;15.07;51.76
10476;BME280;26166;48.264;11.436;2023-05-25T00:17:18;96478.63;;;15.09;51.58
10476;BME280;26166;48.264;11.436;2023-05-25T00:20:19;96482.28;;;15.08;51.91
10476;BME280;26166;48.264;11.436;2023-05-25T00:23:19;96478.63;;;15.09;51.50
10476;BME280;26166;48.264;11.436;2023-05-25T00:26:20;96475.38;;;15.07;51.71
10476;BME280;26166;48.264;11.436;2023-05-25T00:29:20;96484.31;;;15.06;51.78
10476;BME280;26166;48.264;11.436;2023-05-25T00:32:20;96479.41;;;15.03;51.77
10476;BME280;26166;48.264;11.436;2023-05-25T00:35:21;96482.06;;;15.03;51.71
10476;BME280;26166;48.264;11.436;2023-05-25T00:38:21;96492.00;;;15.01;51.82
10476;BME280;26166;48.264;11.436;2023-05-25T00:41:21;96496.03;;;14.97;52.00
10476;BME280;26166;48.264;11.436;2023-05-25T00:44:22;96493.56;;;14.95;52.03
10476;BME280;26166;48.264;11.436;2023-05-25T00:47:23;96489.47;;;14.93;52.04
10476;BME280;26166;48.264;11.436;2023-05-25T00:50:28;96483.38;;;14.92;51.91
10476;BME280;26166;48.264;11.436;2023-05-25T00:53:35;96486.84;;;14.93;52.24
10476;BME280;26166;48.264;11.436;2023-05-25T00:56:39;96487.47;;;14.95;52.06
10476;BME280;26166;48.264;11.436;2023-05-25T00:59:49;96475.03;;;14.95;51.91
10476;BME280;26166;48.264;11.436;2023-05-25T01:02:50;96482.16;;;14.95;52.15
10476;BME280;26166;48.264;11.436;2023-05-25T01:05:51;96474.44;;;14.93;52.23
10476;BME280;26166;48.264;11.436;2023-05-25T01:08:53;96469.31;;;14.92;52.05
10476;BME280;26166;48.264;11.436;2023-05-25T01:11:59;96482.53;;;14.92;52.22
10476;BME280;26166;48.264;11.436;2023-05-25T01:15:01;96477.06;;;14.93;52.38
10476;BME280;26166;48.264;11.436;2023-05-25T01:18:03;96471.59;;;14.95;52.30
10476;BME280;26166;48.264;11.436;2023-05-25T01:21:11;96467.94;;;14.96;52.38
10476;BME280;26166;48.264;11.436;2023-05-25T01:24:19;96472.03;;;14.98;52.42
10476;BME280;26166;48.264;11.436;2023-05-25T01:27:22;96477.13;;;15.00;52.50
10476;BME280;26166;48.264;11.436;2023-05-25T01:30:24;96478.97;;;14.99;52.43
10476;BME280;26166;48.264;11.436;2023-05-25T01:33:25;96481.44;;;15.01;52.60
10476;BME280;26166;48.264;11.436;2023-05-25T01:36:26;96486.72;;;15.01;52.61
10476;BME280;26166;48.264;11.436;2023-05-25T01:39:26;96485.88;;;15.00;52.66
10476;BME280;26166;48.264;11.436;2023-05-25T01:42:27;96490.34;;;15.00;52.53
10476;BME280;26166;48.264;11.436;2023-05-25T01:45:27;96493.00;;;15.00;52.60
10476;BME280;26166;48.264;11.436;2023-05-25T01:48:39;96480.59;;;15.00;52.78
10476;BME280;26166;48.264;11.436;2023-05-25T01:58:03;96492.13;;;14.93;52.90
10476;BME280;26166;48.264;11.436;2023-05-25T02:01:04;96495.97;;;14.90;52.89
10476;BME280;26166;48.264;11.436;2023-05-25T02:04:05;96487.56;;;14.86;53.17
10476;BME280;26166;48.264;11.436;2023-05-25T02:07:06;96486.59;;;14.87;53.27
10476;BME280;26166;48.264;11.436;2023-05-25T02:10:06;96481.47;;;14.86;53.31
10476;BME280;26166;48.264;11.436;2023-05-25T02:13:06;96479.03;;;14.84;53.42
10476;BME280;26166;48.264;11.436;2023-05-25T02:16:06;96471.91;;;14.85;53.50
10476;BME280;26166;48.264;11.436;2023-05-25T02:19:07;96471.09;;;14.84;53.77
10476;BME280;26166;48.264;11.436;2023-05-25T02:22:07;96467.78;;;14.82;53.77
10476;BME280;26166;48.264;11.436;2023-05-25T02:25:07;96467.78;;;14.82;53.73
10476;BME280;26166;48.264;11.436;2023-05-25T02:28:08;96464.34;;;14.82;53.97
10476;BME280;26166;48.264;11.436;2023-05-25T02:31:08;96474.91;;;14.82;54.03
10476;BME280;26166;48.264;11.436;2023-05-25T02:34:08;96468.81;;;14.81;54.23
10476;BME280;26166;48.264;11.436;2023-05-25T02:37:08;96466.16;;;14.81;54.32
10476;BME280;26166;48.264;11.436;2023-05-25T02:40:08;96463.72;;;14.80;54.52
10476;BME280;26166;48.264;11.436;2023-05-25T02:43:09;96457.63;;;14.79;54.41
10476;BME280;26166;48.264;11.436;2023-05-25T02:46:10;96465.53;;;14.79;54.67
10476;BME280;26166;48.264;11.436;2023-05-25T02:49:10;96459.25;;;14.80;54.72
10476;BME280;26166;48.264;11.436;2023-05-25T02:52:10;96463.72;;;14.80;54.94
10476;BME280;26166;48.264;11.436;2023-05-25T02:55:10;96464.91;;;14.77;54.93
10476;BME280;26166;48.264;11.436;2023-05-25T02:58:12;96469.38;;;14.77;55.19
10476;BME280;26166;48.264;11.436;2023-05-25T03:01:12;96464.09;;;14.77;55.39
10476;BME280;26166;48.264;11.436;2023-05-25T03:04:17;96454.53;;;14.76;55.36
10476;BME280;26166;48.264;11.436;2023-05-25T03:07:18;96458.78;;;14.77;55.60
10476;BME280;26166;48.264;11.436;2023-05-25T03:10:18;96471.00;;;14.78;55.67
10476;BME280;26166;48.264;11.436;2023-05-25T03:13:18;96473.28;;;14.81;55.70
10476;BME280;26166;48.264;11.436;2023-05-25T03:16:18;96468.63;;;14.83;55.81
10476;BME280;26166;48.264;11.436;2023-05-25T03:19:18;96470.63;;;14.81;56.05
10476;BME280;26166;48.264;11.436;2023-05-25T03:22:19;96471.66;;;14.80;56.18
10476;BME280;26166;48.264;11.436;2023-05-25T03:25:19;96477.09;;;14.78;56.38
10476;BME280;26166;48.264;11.436;2023-05-25T03:28:20;96468.56;;;14.76;56.71
10476;BME280;26166;48.264;11.436;2023-05-25T03:31:20;96474.66;;;14.77;56.73
10476;BME280;26166;48.264;11.436;2023-05-25T03:34:20;96471.81;;;14.78;57.05
10476;BME280;26166;48.264;11.436;2023-05-25T03:37:20;96477.09;;;14.78;57.18
10476;BME280;26166;48.264;11.436;2023-05-25T03:40:21;96480.41;;;14.80;57.42
10476;BME280;26166;48.264;11.436;2023-05-25T03:43:21;96475.09;;;14.80;57.65
10476;BME280;26166;48.264;11.436;2023-05-25T03:46:21;96485.69;;;14.80;57.90
10476;BME280;26166;48.264;11.436;2023-05-25T03:49:21;96481.41;;;14.79;58.07
10476;BME280;26166;48.264;11.436;2023-05-25T03:52:22;96486.50;;;14.81;58.30
10476;BME280;26166;48.264;11.436;2023-05-25T03:55:22;96482.41;;;14.78;58.65
10476;BME280;26166;48.264;11.436;2023-05-25T03:58:22;96483.41;;;14.77;59.18
10476;BME280;26166;48.264;11.436;2023-05-25T04:01:22;96485.44;;;14.75;59.32
10476;BME280;26166;48.264;11.436;2023-05-25T04:04:25;96489.72;;;14.76;59.50
10476;BME280;26166;48.264;11.436;2023-05-25T04:07:27;96490.53;;;14.77;59.92
10476;BME280;26166;48.264;11.436;2023-05-25T04:10:29;96492.97;;;14.78;60.06
10476;BME280;26166;48.264;11.436;2023-05-25T04:13:29;96492.97;;;14.78;60.13
10476;BME280;26166;48.264;11.436;2023-05-25T04:16:29;96491.78;;;14.81;60.32
10476;BME280;26166;48.264;11.436;2023-05-25T04:19:29;96501.34;;;14.82;60.29
10476;BME280;26166;48.264;11.436;2023-05-25T04:22:30;96504.81;;;14.82;60.63
10476;BME280;26166;48.264;11.436;2023-05-25T04:25:32;96501.19;;;14.83;60.55
10476;BME280;26166;48.264;11.436;2023-05-25T04:28:32;96502.19;;;14.82;61.17
10476;BME280;26166;48.264;11.436;2023-05-25T04:31:33;96510.09;;;14.82;61.36
10476;BME280;26166;48.264;11.436;2023-05-25T04:34:34;96509.28;;;14.82;61.30
10476;BME280;26166;48.264;11.436;2023-05-25T04:37:35;96507.28;;;14.84;61.63
10476;BME280;26166;48.264;11.436;2023-05-25T04:40:35;96508.13;;;14.84;61.75
10476;BME280;26166;48.264;11.436;2023-05-25T04:43:36;96508.13;;;14.84;61.75
10476;BME280;26166;48.264;11.436;2023-05-25T04:46:36;96507.28;;;14.84;62.15
10476;BME280;26166;48.264;11.436;2023-05-25T04:49:37;96503.19;;;14.81;62.39
10476;BME280;26166;48.264;11.436;2023-05-25T04:52:38;96504.00;;;14.82;62.58
10476;BME280;26166;48.264;11.436;2023-05-25T04:55:38;96506.19;;;14.78;62.70
10476;BME280;26166;48.264;11.436;2023-05-25T04:58:38;96502.56;;;14.79;62.91
10476;BME280;26166;48.264;11.436;2023-05-25T05:01:41;96504.56;;;14.77;63.18
10476;BME280;26166;48.264;11.436;2023-05-25T05:04:43;96508.84;;;14.78;63.17
10476;BME280;26166;48.264;11.436;2023-05-25T05:07:43;96508.84;;;14.78;63.04
10476;BME280;26166;48.264;11.436;2023-05-25T05:10:43;96519.41;;;14.78;63.18
10476;BME280;26166;48.264;11.436;2023-05-25T05:13:43;96519.41;;;14.78;63.27
10476;BME280;26166;48.264;11.436;2023-05-25T05:16:44;96529.63;;;14.81;63.03
10476;BME280;26166;48.264;11.436;2023-05-25T05:19:44;96519.88;;;14.82;63.13
10476;BME280;26166;48.264;11.436;2023-05-25T05:22:44;96528.63;;;14.82;62.77
10476;BME280;26166;48.264;11.436;2023-05-25T05:25:45;96520.53;;;14.84;63.03
10476;BME280;26166;48.264;11.436;2023-05-25T05:28:45;96528.00;;;14.80;62.89
10476;BME280;26166;48.264;11.436;2023-05-25T05:31:45;96532.63;;;14.78;63.09
10476;BME280;26166;48.264;11.436;2023-05-25T05:34:45;96538.78;;;14.79;62.96
10476;BME280;26166;48.264;11.436;2023-05-25T05:37:45;96542.22;;;14.79;62.75
10476;BME280;26166;48.264;11.436;2023-05-25T05:40:46;96535.28;;;14.78;62.58
10476;BME280;26166;48.264;11.436;2023-05-25T05:43:47;96547.53;;;14.79;62.04
10476;BME280;26166;48.264;11.436;2023-05-25T05:46:47;96541.22;;;14.80;62.07
10476;BME280;26166;48.264;11.436;2023-05-25T05:49:47;96545.69;;;14.80;61.86
10476;BME280;26166;48.264;11.436;2023-05-25T05:52:47;96545.50;;;14.81;61.74
10476;BME280;26166;48.264;11.436;2023-05-25T05:55:47;96546.50;;;14.80;61.59
10476;BME280;26166;48.264;11.436;2023-05-25T05:58:48;96541.22;;;14.80;61.55
10476;BME280;26166;48.264;11.436;2023-05-25T06:01:50;96550.97;;;14.80;61.47
10476;BME280;26166;48.264;11.436;2023-05-25T06:04:50;96549.97;;;14.81;61.40
10476;BME280;26166;48.264;11.436;2023-05-25T06:07:51;96555.25;;;14.81;61.22
10476;BME280;26166;48.264;11.436;2023-05-25T06:10:51;96549.16;;;14.80;61.32
10476;BME280;26166;48.264;11.436;2023-05-25T06:13:51;96548.16;;;14.81;61.06
10476;BME280;26166;48.264;11.436;2023-05-25T06:16:51;96557.72;;;14.82;61.16
10476;BME280;26166;48.264;11.436;2023-05-25T06:19:51;96555.88;;;14.83;61.21
10476;BME280;26166;48.264;11.436;2023-05-25T06:22:52;96555.06;;;14.82;61.33
10476;BME280;26166;48.264;11.436;2023-05-25T06:25:52;96558.72;;;14.81;61.22
10476;BME280;26166;48.264;11.436;2023-05-25T06:28:54;96563.00;;;14.82;61.13
10476;BME280;26166;48.264;11.436;2023-05-25T06:31:56;96567.47;;;14.82;61.25
10476;BME280;26166;48.264;11.436;2023-05-25T06:34:56;96576.88;;;14.84;61.25
10476;BME280;26166;48.264;11.436;2023-05-25T06:37:56;96567.09;;;14.85;61.24
10476;BME280;26166;48.264;11.436;2023-05-25T06:40:57;96571.59;;;14.84;61.12
10476;BME280;26166;48.264;11.436;2023-05-25T06:44:03;96578.88;;;14.82;61.39
10476;BME280;26166;48.264;11.436;2023-05-25T06:47:04;96575.25;;;14.83;61.29
10476;BME280;26166;48.264;11.436;2023-05-25T06:50:04;96582.97;;;14.85;61.47
10476;BME280;26166;48.264;11.436;2023-05-25T06:53:05;96576.50;;;14.87;61.40
10476;BME280;26166;48.264;11.436;2023-05-25T06:56:05;96576.50;;;14.87;61.56
10476;BME280;26166;48.264;11.436;2023-05-25T06:59:05;96572.84;;;14.88;61.54
10476;BME280;26166;48.264;11.436;2023-05-25T07:02:06;96578.50;;;14.85;61.65
10476;BME280;26166;48.264;11.436;2023-05-25T07:05:06;96580.53;;;14.83;61.66
10476;BME280;26166;48.264;11.436;2023-05-25T07:08:06;96575.25;;;14.83;61.87
10476;BME280;26166;48.264;11.436;2023-05-25T07:11:06;96581.50;;;14.82;61.81
10476;BME280;26166;48.264;11.436;2023-05-25T07:14:09;96576.06;;;14.84;61.58
10476;BME280;26166;48.264;11.436;2023-05-25T07:17:09;96586.44;;;14.85;61.58
10476;BME280;26166;48.264;11.436;2023-05-25T07:20:11;96587.44;;;14.84;61.82
10476;BME280;26166;48.264;11.436;2023-05-25T07:23:11;96588.28;;;14.85;61.92
10476;BME280;26166;48.264;11.436;2023-05-25T07:26:12;96596.00;;;14.86;61.80
10476;BME280;26166;48.264;11.436;2023-05-25T07:29:12;96593.56;;;14.85;61.96
10476;BME280;26166;48.264;11.436;2023-05-25T07:32:12;96592.38;;;14.87;61.94
10476;BME280;26166;48.264;11.436;2023-05-25T07:35:12;96588.72;;;14.88;61.96
10476;BME280;26166;48.264;11.436;2023-05-25T07:38:13;96602.41;;;14.92;61.98
10476;BME280;26166;48.264;11.436;2023-05-25T07:41:13;96610.50;;;14.91;62.27
10476;BME280;26166;48.264;11.436;2023-05-25T07:44:13;96610.50;;;14.91;62.19
10476;BME280;26166;48.264;11.436;2023-05-25T07:47:13;96621.91;;;14.91;62.09
10476;BME280;26166;48.264;11.436;2023-05-25T07:50:14;96613.16;;;14.91;62.22
10476;BME280;26166;48.264;11.436;2023-05-25T07:53:14;96617.25;;;14.93;62.12
10476;BME280;26166;48.264;11.436;2023-05-25T07:56:14;96623.38;;;14.94;62.10
10476;BME280;26166;48.264;11.436;2023-05-25T07:59:15;96620.53;;;14.95;62.02
10476;BME280;26166;48.264;11.436;2023-05-25T08:02:15;96614.41;;;14.95;62.16
10476;BME280;26166;48.264;11.436;2023-05-25T08:05:15;96625.81;;;14.95;62.09
10476;BME280;26166;48.264;11.436;2023-05-25T08:08:15;96619.72;;;14.95;62.24
10476;BME280;26166;48.264;11.436;2023-05-25T08:11:16;96627.84;;;14.93;62.25
10476;BME280;26166;48.264;11.436;2023-05-25T08:14:16;96628.47;;;14.95;62.42
10476;BME280;26166;48.264;11.436;2023-05-25T08:17:16;96628.28;;;14.97;62.22
10476;BME280;26166;48.264;11.436;2023-05-25T08:20:17;96628.28;;;14.97;62.26
10476;BME280;26166;48.264;11.436;2023-05-25T08:23:17;96625.66;;;14.97;62.42
10476;BME280;26166;48.264;11.436;2023-05-25T08:26:17;96638.88;;;14.97;62.52
10476;BME280;26166;48.264;11.436;2023-05-25T08:29:18;96628.28;;;14.97;62.59
10476;BME280;26166;48.264;11.436;2023-05-25T08:32:18;96623.63;;;14.99;62.65
10476;BME280;26166;48.264;11.436;2023-05-25T08:35:18;96633.84;;;15.02;62.68
10476;BME280;26166;48.264;11.436;2023-05-25T08:38:18;96636.28;;;15.03;62.68
10476;BME280;26166;48.264;11.436;2023-05-25T08:41:23;96632.63;;;15.04;62.37
10476;BME280;26166;48.264;11.436;2023-05-25T08:44:25;96630.81;;;15.05;62.42
10476;BME280;26166;48.264;11.436;2023-05-25T08:47:25;96629.00;;;15.05;62.63
10476;BME280;26166;48.264;11.436;2023-05-25T08:50:28;96634.31;;;15.05;62.79
10476;BME280;26166;48.264;11.436;2023-05-25T08:53:31;96640.41;;;15.06;62.80
10476;BME280;26166;48.264;11.436;2023-05-25T08:56:34;96641.22;;;15.06;62.96
10476;BME280;26166;48.264;11.436;2023-05-25T09:06:28;96647.97;;;15.09;62.95
10476;BME280;26166;48.264;11.436;2023-05-25T09:09:28;96658.53;;;15.09;63.03
10476;BME280;26166;48.264;11.436;2023-05-25T09:12:32;96656.91;;;15.08;63.09
10476;BME280;26166;48.264;11.436;2023-05-25T09:15:35;96656.91;;;15.08;63.32
10476;BME280;26166;48.264;11.436;2023-05-25T09:18:35;96656.28;;;15.06;63.57
10476;BME280;26166;48.264;11.436;2023-05-25T09:21:38;96660.56;;;15.07;63.58
10476;BME280;26166;48.264;11.436;2023-05-25T09:24:39;96661.38;;;15.07;63.47
10476;BME280;26166;48.264;11.436;2023-05-25T09:27:40;96666.88;;;15.06;63.55
10476;BME280;26166;48.264;11.436;2023-05-25T09:30:41;96671.97;;;15.07;63.57
10476;BME280;26166;48.264;11.436;2023-05-25T09:33:41;96664.66;;;15.09;63.43
10476;BME280;26166;48.264;11.436;2023-05-25T09:36:42;96671.59;;;15.10;63.22
10476;BME280;26166;48.264;11.436;2023-05-25T09:39:42;96666.31;;;15.10;63.54
10476;BME280;26166;48.264;11.436;2023-05-25T09:42:42;96674.06;;;15.12;63.38
10476;BME280;26166;48.264;11.436;2023-05-25T09:45:43;96678.16;;;15.14;63.43
10476;BME280;26166;48.264;11.436;2023-05-25T09:48:43;96680.63;;;15.16;63.36
10476;BME280;26166;48.264;11.436;2023-05-25T09:51:44;96684.75;;;15.19;63.26
10476;BME280;26166;48.264;11.436;2023-05-25T09:54:46;96681.91;;;15.20;63.30
10476;BME280;26166;48.264;11.436;2023-05-25T09:57:46;96682.09;;;15.19;63.77
10476;BME280;26166;48.264;11.436;2023-05-25T10:00:47;96676.16;;;15.17;63.83
10476;BME280;26166;48.264;11.436;2023-05-25T10:03:47;96673.31;;;15.18;63.90
10476;BME280;26166;48.264;11.436;2023-05-25T10:06:47;96684.75;;;15.19;64.09
10476;BME280;26166;48.264;11.436;2023-05-25T10:09:50;96672.94;;;15.21;63.73
10476;BME280;26166;48.264;11.436;2023-05-25T10:12:52;96677.22;;;15.22;63.94
10476;BME280;26166;48.264;11.436;2023-05-25T10:15:53;96678.88;;;15.23;63.58
10476;BME280;26166;48.264;11.436;2023-05-25T10:18:56;96675.84;;;15.26;63.37
10476;BME280;26166;48.264;11.436;2023-05-25T10:22:01;96681.97;;;15.27;63.52
10476;BME280;26166;48.264;11.436;2023-05-25T10:25:17;96684.44;;;15.28;63.61
10476;BME280;26166;48.264;11.436;2023-05-25T10:28:28;96683.22;;;15.31;63.67
10476;BME280;26166;48.264;11.436;2023-05-25T10:31:30;96688.25;;;15.41;63.54
10476;BME280;26166;48.264;11.436;2023-05-25T10:34:32;96679.34;;;15.48;63.19
10476;BME280;26166;48.264;11.436;2023-05-25T10:37:33;96684.91;;;15.53;63.26
10476;BME280;26166;48.264;11.436;2023-05-25T10:40:34;96683.53;;;15.57;63.35
10476;BME280;26166;48.264;11.436;2023-05-25T10:43:34;96678.69;;;15.61;63.15
10476;BME280;26166;48.264;11.436;2023-05-25T10:46:35;96679.16;;;15.64;62.92
10476;BME280;26166;48.264;11.436;2023-05-25T10:49:49;96684.91;;;15.68;63.21
10476;BME280;26166;48.264;11.436;2023-05-25T10:53:32;96684.72;;;15.70;62.82
10476;BME280;26166;48.264;11.436;2023-05-25T10:56:15;96692.47;;;15.71;62.78
10476;BME280;26166;48.264;11.436;2023-05-25T10:59:15;96688.00;;;15.72;62.70
10476;BME280;26166;48.264;11.436;2023-05-25T11:02:27;96689.44;;;15.74;62.68
10476;BME280;26166;48.264;11.436;2023-05-25T11:05:31;96685.97;;;15.74;62.67
10476;BME280;26166;48.264;11.436;2023-05-25T11:08:47;96681.28;;;15.76;62.63
10476;BME280;26166;48.264;11.436;2023-05-25T11:18:07;96676.97;;;15.68;63.00
10476;BME280;26166;48.264;11.436;2023-05-25T11:21:20;96675.34;;;15.67;63.11
10476;BME280;26166;48.264;11.436;2023-05-25T11:24:20;96664.09;;;15.65;62.71
10476;BME280;26166;48.264;11.436;2023-05-25T11:27:21;96671.84;;;15.67;62.92
10476;BME280;26166;48.264;11.436;2023-05-25T11:30:26;96657.63;;;15.68;63.03
10476;BME280;26166;48.264;11.436;2023-05-25T11:33:26;96659.28;;;15.75;62.93
10476;BME280;26166;48.264;11.436;2023-05-25T11:36:27;96659.38;;;15.82;62.95
10476;BME280;26166;48.264;11.436;2023-05-25T11:39:32;96656.97;;;15.87;62.89
10476;BME280;26166;48.264;11.436;2023-05-25T11:42:32;96654.75;;;15.91;62.62
10476;BME280;26166;48.264;11.436;2023-05-25T11:45:32;96646.41;;;15.94;62.69
10476;BME280;26166;48.264;11.436;2023-05-25T11:48:33;96647.06;;;15.96;62.54
10476;BME280;26166;48.264;11.436;2023-05-25T11:51:33;96648.53;;;15.98;62.55
10476;BME280;26166;48.264;11.436;2023-05-25T11:54:33;96643.84;;;16.00;62.56
10476;BME280;26166;48.264;11.436;2023-05-25T11:57:34;96640.16;;;16.01;62.75
10476;BME280;26166;48.264;11.436;2023-05-25T12:00:34;96645.31;;;16.03;62.72
10476;BME280;26166;48.264;11.436;2023-05-25T12:03:35;96631.84;;;16.04;62.46
10476;BME280;26166;48.264;11.436;2023-05-25T12:06:35;96636.94;;;16.06;62.66
10476;BME280;26166;48.264;11.436;2023-05-25T12:09:39;96637.97;;;16.05;62.67
10476;BME280;26166;48.264;11.436;2023-05-25T12:12:43;96632.47;;;16.06;62.73
10476;BME280;26166;48.264;11.436;2023-05-25T12:15:43;96635.13;;;16.06;62.56
10476;BME280;26166;48.264;11.436;2023-05-25T12:18:44;96637.59;;;16.08;62.90
10476;BME280;26166;48.264;11.436;2023-05-25T12:21:45;96634.53;;;16.11;63.05
10476;BME280;26166;48.264;11.436;2023-05-25T12:24:48;96633.72;;;16.10;62.89
10476;BME280;26166;48.264;11.436;2023-05-25T12:27:48;96632.72;;;16.11;62.83
10476;BME280;26166;48.264;11.436;2023-05-25T12:30:48;96635.56;;;16.10;62.74
10476;BME280;26166;48.264;11.436;2023-05-25T12:37:30;96631.50;;;16.14;63.14
10476;BME280;26166;48.264;11.436;2023-05-25T12:40:30;96621.94;;;16.13;62.94
10476;BME280;26166;48.264;11.436;2023-05-25T12:43:37;96620.91;;;16.14;62.87
10476;BME280;26166;48.264;11.436;2023-05-25T12:46:38;96618.06;;;16.15;62.96
10476;BME280;26166;48.264;11.436;2023-05-25T12:49:39;96623.19;;;16.17;63.45
10476;BME280;26166;48.264;11.436;2023-05-25T12:52:43;96625.84;;;16.17;63.36
10476;BME280;26166;48.264;11.436;2023-05-25T12:55:43;96617.88;;;16.17;62.97
10476;BME280;26166;48.264;11.436;2023-05-25T12:58:43;96615.84;;;16.19;63.17
10476;BME280;26166;48.264;11.436;2023-05-25T13:01:44;96602.59;;;16.19;63.23
10476;BME280;26166;48.264;11.436;2023-05-25T13:04:44;96621.78;;;16.21;63.22
10476;BME280;26166;48.264;11.436;2023-05-25T13:07:44;96623.44;;;16.22;63.38
10476;BME280;26166;48.264;11.436;2023-05-25T13:10:44;96607.72;;;16.21;63.28
10476;BME280;26166;48.264;11.436;2023-05-25T13:13:49;96607.53;;;16.22;63.31
10476;BME280;26166;48.264;11.436;2023-05-25T13:16:52;96613.03;;;16.21;63.28
10476;BME280;26166;48.264;11.436;2023-05-25T13:19:52;96613.19;;;16.19;63.14
10476;BME280;26166;48.264;11.436;2023-05-25T13:22:53;96606.25;;;16.18;63.33
10476;BME280;26166;48.264;11.436;2023-05-25T13:25:56;96600.16;;;16.18;63.07
10476;BME280;26166;48.264;11.436;2023-05-25T13:28:56;96599.34;;;16.17;63.06
10476;BME280;26166;48.264;11.436;2023-05-25T13:31:56;96600.34;;;16.16;63.53
10476;BME280;26166;48.264;11.436;2023-05-25T13:34:57;96595.22;;;16.14;63.33
10476;BME280;26166;48.264;11.436;2023-05-25T13:37:58;96589.09;;;16.14;63.36
10476;BME280;26166;48.264;11.436;2023-05-25T13:40:59;96593.81;;;16.12;63.08
10476;BME280;26166;48.264;11.436;2023-05-25T13:44:00;96593.59;;;16.13;63.81
10476;BME280;26166;48.264;11.436;2023-05-25T13:47:00;96601.34;;;16.15;63.88
10476;BME280;26166;48.264;11.436;2023-05-25T13:50:00;96589.56;;;16.18;63.68
10476;BME280;26166;48.264;11.436;2023-05-25T13:53:00;96593.84;;;16.19;63.44
10476;BME280;26166;48.264;11.436;2023-05-25T13:56:00;96589.56;;;16.18;63.25
10476;BME280;26166;48.264;11.436;2023-05-25T13:59:00;96596.47;;;16.19;63.23
10476;BME280;26166;48.264;11.436;2023-05-25T14:02:01;96586.69;;;16.19;63.63
10476;BME280;26166;48.264;11.436;2023-05-25T14:05:01;96590.97;;;16.20;63.38
10476;BME280;26166;48.264;11.436;2023-05-25T14:08:01;96590.81;;;16.22;63.76
10476;BME280;26166;48.264;11.436;2023-05-25T14:11:03;96594.28;;;16.22;63.60
10476;BME280;26166;48.264;11.436;2023-05-25T14:14:04;96581.84;;;16.23;63.35
10476;BME280;26166;48.264;11.436;2023-05-25T14:17:07;96585.50;;;16.22;63.41
10476;BME280;26166;48.264;11.436;2023-05-25T14:20:07;96578.38;;;16.22;63.80
10476;BME280;26166;48.264;11.436;2023-05-25T14:23:08;96575.72;;;16.22;63.37
10476;BME280;26166;48.264;11.436;2023-05-25T14:26:08;96581.00;;;16.22;63.94
10476;BME280;26166;48.264;11.436;2023-05-25T14:29:09;96573.69;;;16.24;63.65
10476;BME280;26166;48.264;11.436;2023-05-25T14:32:09;96579.63;;;16.26;63.47
10476;BME280;26166;48.264;11.436;2023-05-25T14:35:09;96576.97;;;16.26;63.33
10476;BME280;26166;48.264;11.436;2023-05-25T14:38:09;96576.16;;;16.26;63.61
10476;BME280;26166;48.264;11.436;2023-05-25T14:41:10;96574.31;;;16.26;63.72
10476;BME280;26166;48.264;11.436;2023-05-25T14:44:10;96576.16;;;16.26;63.75
10476;BME280;26166;48.264;11.436;2023-05-25T14:47:10;96575.34;;;16.25;63.43
10476;BME280;26166;48.264;11.436;2023-05-25T14:50:10;96575.50;;;16.24;63.57
10476;BME280;26166;48.264;11.436;2023-05-25T14:53:10;96569.41;;;16.23;63.56
10476;BME280;26166;48.264;11.436;2023-05-25T14:56:11;96571.22;;;16.23;63.49
10476;BME280;26166;48.264;11.436;2023-05-25T14:59:11;96579.38;;;16.21;63.55
10476;BME280;26166;48.264;11.436;2023-05-25T15:02:11;96582.41;;;16.18;63.54
10476;BME280;26166;48.264;11.436;2023-05-25T15:05:11;96583.22;;;16.19;63.84
10476;BME280;26166;48.264;11.436;2023-05-25T15:08:11;96583.03;;;16.20;63.49
10476;BME280;26166;48.264;11.436;2023-05-25T15:11:12;96577.13;;;16.18;63.60
10476;BME280;26166;48.264;11.436;2023-05-25T15:14:12;96575.06;;;16.20;63.75
10476;BME280;26166;48.264;11.436;2023-05-25T15:17:13;96571.44;;;16.21;63.90
10476;BME280;26166;48.264;11.436;2023-05-25T15:20:13;96568.59;;;16.23;63.33
10476;BME280;26166;48.264;11.436;2023-05-25T15:23:13;96575.50;;;16.24;63.54
10476;BME280;26166;48.264;11.436;2023-05-25T15:26:13;96577.34;;;16.23;63.50
10476;BME280;26166;48.264;11.436;2023-05-25T15:29:14;96572.03;;;16.23;63.31
10476;BME280;26166;48.264;11.436;2023-05-25T15:32:14;96568.38;;;16.24;63.62
10476;BME280;26166;48.264;11.436;2023-05-25T15:35:16;96574.53;;;16.25;63.16
10476;BME280;26166;48.264;11.436;2023-05-25T15:38:16;96573.69;;;16.24;63.03
10476;BME280;26166;48.264;11.436;2023-05-25T15:41:17;96578.56;;;16.21;62.86
10476;BME280;26166;48.264;11.436;2023-05-25T15:44:17;96578.75;;;16.19;62.84
10476;BME280;26166;48.264;11.436;2023-05-25T15:47:17;96574.09;;;16.21;63.51
10476;BME280;26166;48.264;11.436;2023-05-25T15:50:17;96574.09;;;16.21;63.37
10476;BME280;26166;48.264;11.436;2023-05-25T15:53:17;96571.22;;;16.23;63.07
10476;BME280;26166;48.264;11.436;2023-05-25T15:56:17;96565.13;;;16.22;63.22
10476;BME280;26166;48.264;11.436;2023-05-25T15:59:18;96563.47;;;16.21;63.27
10476;BME280;26166;48.264;11.436;2023-05-25T16:02:18;96567.38;;;16.25;62.95
10476;BME280;26166;48.264;11.436;2023-05-25T16:05:18;96565.19;;;16.35;63.10
10476;BME280;26166;48.264;11.436;2023-05-25T16:08:18;96563.00;;;16.46;62.88
10476;BME280;26166;48.264;11.436;2023-05-25T16:11:18;96554.50;;;16.57;62.23